Time;durP1;ratioP1;P1;durP2;ratioP2;P2;SDS_P1;SDS_P2;PMS_P1;PMS_P2;Temp;Humidity;BMP_temperature;BMP_pressure;BME280_temperature;BME280_humidity;BME280_pressure;Samples;Min_cycle;Max_cycle;Signal;HPM_P1;HPM_P2
2022/05/14 00:01:10;;;;;;;14.82;13.48;;;;;;;;;;5011438;28;20113;-69
2022/05/14 00:03:38;;;;;;;15.57;14.07;;;;;;;;;;5012172;28;20099;-71
2022/05/14 00:06:06;;;;;;;15.27;13.80;;;;;;;;;;5018988;28;20036;-71
2022/05/14 00:08:32;;;;;;;15.10;13.90;;;;;;;;;;5011419;28;20041;-70
2022/05/14 00:13:43;;;;;;;15.68;14.15;;;;;;;;;;5012381;28;20491;-70
2022/05/14 00:16:10;;;;;;;15.27;13.95;;;;;;;;;;5018255;28;20037;-71
2022/05/14 00:18:37;;;;;;;15.82;14.40;;;;;;;;;;5011379;28;20038;-72
2022/05/14 00:21:03;;;;;;;15.63;14.18;;;;;;;;;;5011107;28;20057;-70
2022/05/14 00:23:29;;;;;;;15.45;14.13;;;;;;;;;;5013459;28;20030;-71
2022/05/14 00:25:55;;;;;;;16.45;14.63;;;;;;;;;;5013565;28;20026;-71
2022/05/14 00:28:21;;;;;;;16.63;15.10;;;;;;;;;;5011189;28;20073;-70
2022/05/14 00:30:48;;;;;;;15.48;14.27;;;;;;;;;;5009614;28;20107;-70
2022/05/14 00:33:13;;;;;;;16.77;15.05;;;;;;;;;;5012793;28;20120;-71
2022/05/14 00:35:40;;;;;;;16.33;14.82;;;;;;;;;;5014436;28;20454;-70
2022/05/14 00:38:08;;;;;;;16.17;14.73;;;;;;;;;;5011048;28;20034;-70
2022/05/14 00:40:40;;;;;;;16.70;15.20;;;;;;;;;;5011257;28;20052;-71
2022/05/14 00:43:06;;;;;;;15.77;14.30;;;;;;;;;;5019230;28;20038;-70
2022/05/14 00:45:36;;;;;;;16.33;15.00;;;;;;;;;;5008977;28;20387;-70
2022/05/14 00:48:03;;;;;;;16.42;15.02;;;;;;;;;;5010474;28;20069;-69
2022/05/14 00:50:48;;;;;;;16.83;15.13;;;;;;;;;;5009787;28;20038;-70
2022/05/14 00:53:27;;;;;;;16.63;15.25;;;;;;;;;;5018743;28;20041;-71
2022/05/14 00:55:56;;;;;;;16.63;15.13;;;;;;;;;;5015761;28;20037;-71
2022/05/14 00:59:06;;;;;;;15.98;14.77;;;;;;;;;;5025042;28;20312;-72
2022/05/14 01:01:33;;;;;;;17.23;15.27;;;;;;;;;;4971029;28;20335;-71
2022/05/14 01:03:59;;;;;;;16.00;14.70;;;;;;;;;;4970576;28;20074;-71
2022/05/14 01:06:28;;;;;;;21.90;15.75;;;;;;;;;;4970892;28;20058;-70
2022/05/14 01:08:55;;;;;;;18.23;15.30;;;;;;;;;;4978543;28;20045;-69
2022/05/14 01:11:21;;;;;;;16.83;15.30;;;;;;;;;;4971293;28;20054;-70
2022/05/14 01:13:47;;;;;;;16.65;15.00;;;;;;;;;;5012131;22;20034;-66
2022/05/14 01:16:12;;;;;;;16.75;15.20;;;;;;;;;;5005845;28;20037;-66
2022/05/14 01:18:38;;;;;;;16.52;15.05;;;;;;;;;;5005016;28;20118;-64
2022/05/14 01:21:27;;;;;;;16.80;15.30;;;;;;;;;;4990628;28;20034;-62
2022/05/14 01:26:49;;;;;;;16.48;14.98;;;;;;;;;;4998678;28;20401;-64
2022/05/14 01:29:22;;;;;;;16.00;14.68;;;;;;;;;;5006104;28;20037;-64
2022/05/14 01:31:52;;;;;;;17.08;15.27;;;;;;;;;;5008648;28;20468;-64
2022/05/14 01:34:30;;;;;;;16.10;15.00;;;;;;;;;;5006572;28;20080;-64
2022/05/14 01:36:57;;;;;;;16.47;14.90;;;;;;;;;;5010482;28;20496;-63
2022/05/14 01:39:23;;;;;;;16.23;14.70;;;;;;;;;;4995047;28;20152;-64
2022/05/14 01:41:49;;;;;;;16.15;14.85;;;;;;;;;;5013140;28;20117;-64
2022/05/14 01:44:17;;;;;;;17.15;15.38;;;;;;;;;;5010922;28;20080;-64
2022/05/14 01:46:44;;;;;;;15.90;14.52;;;;;;;;;;5011749;28;20037;-64
2022/05/14 01:49:10;;;;;;;16.05;14.45;;;;;;;;;;5018281;28;20026;-65
2022/05/14 01:51:36;;;;;;;16.02;14.63;;;;;;;;;;5005281;28;20033;-64
2022/05/14 01:54:03;;;;;;;17.20;15.30;;;;;;;;;;5012442;28;20068;-64
2022/05/14 01:56:29;;;;;;;15.98;14.57;;;;;;;;;;5005501;28;20034;-64
2022/05/14 01:58:55;;;;;;;16.52;14.93;;;;;;;;;;5010656;28;20072;-64
2022/05/14 02:01:26;;;;;;;15.88;14.55;;;;;;;;;;5007160;28;20026;-64
2022/05/14 02:03:54;;;;;;;16.23;14.77;;;;;;;;;;5010606;28;20034;-65
2022/05/14 02:06:22;;;;;;;16.30;14.60;;;;;;;;;;5010434;28;20795;-64
2022/05/14 02:08:48;;;;;;;15.65;14.10;;;;;;;;;;5007519;28;20464;-64
2022/05/14 02:11:14;;;;;;;15.60;14.30;;;;;;;;;;5011812;28;20498;-62
2022/05/14 02:13:44;;;;;;;16.23;14.82;;;;;;;;;;5000244;28;20111;-64
2022/05/14 02:16:10;;;;;;;16.55;15.13;;;;;;;;;;5003104;28;20038;-64
2022/05/14 02:18:36;;;;;;;16.23;14.93;;;;;;;;;;5002981;28;20469;-65
2022/05/14 02:21:04;;;;;;;16.48;14.77;;;;;;;;;;5003272;28;20262;-64
2022/05/14 02:23:30;;;;;;;16.15;14.75;;;;;;;;;;5004719;28;20095;-64
2022/05/14 02:25:56;;;;;;;18.58;14.40;;;;;;;;;;5004168;28;20499;-64
2022/05/14 02:28:22;;;;;;;16.52;14.93;;;;;;;;;;5004239;28;20046;-64
2022/05/14 02:30:48;;;;;;;15.85;14.43;;;;;;;;;;5004864;28;20112;-65
2022/05/14 02:33:14;;;;;;;16.30;14.65;;;;;;;;;;5002982;28;20034;-65
2022/05/14 02:35:41;;;;;;;18.88;15.02;;;;;;;;;;5002455;28;20041;-64
2022/05/14 02:38:07;;;;;;;16.33;14.63;;;;;;;;;;4996689;28;20044;-65
2022/05/14 02:40:34;;;;;;;16.00;14.65;;;;;;;;;;5005419;28;20025;-65
2022/05/14 02:43:00;;;;;;;17.33;15.70;;;;;;;;;;5004248;28;20025;-64
2022/05/14 02:45:26;;;;;;;16.45;15.05;;;;;;;;;;5002222;28;20670;-65
2022/05/14 02:47:52;;;;;;;16.77;15.18;;;;;;;;;;5000948;28;20030;-65
2022/05/14 02:50:18;;;;;;;16.77;15.10;;;;;;;;;;5002589;28;20025;-64
2022/05/14 02:52:44;;;;;;;16.00;14.68;;;;;;;;;;5004545;28;20041;-65
2022/05/14 02:55:10;;;;;;;16.50;14.80;;;;;;;;;;4999963;28;20034;-64
2022/05/14 02:57:36;;;;;;;19.63;15.07;;;;;;;;;;4983515;28;20040;-65
2022/05/14 03:00:08;;;;;;;16.83;15.27;;;;;;;;;;5002939;28;20034;-63
2022/05/14 03:02:35;;;;;;;16.05;14.63;;;;;;;;;;4997601;28;20110;-65
2022/05/14 03:05:01;;;;;;;16.48;14.75;;;;;;;;;;5002675;28;20050;-64
2022/05/14 03:07:28;;;;;;;16.90;15.38;;;;;;;;;;5004027;28;20037;-65
2022/05/14 03:09:53;;;;;;;17.08;15.25;;;;;;;;;;4990461;28;20520;-65
2022/05/14 03:12:21;;;;;;;16.52;14.93;;;;;;;;;;4987518;28;20042;-65
2022/05/14 03:14:49;;;;;;;16.77;14.98;;;;;;;;;;4995979;28;20515;-65
2022/05/14 03:17:15;;;;;;;17.60;16.00;;;;;;;;;;5001523;28;20022;-65
2022/05/14 03:19:41;;;;;;;16.90;15.40;;;;;;;;;;5002520;28;20521;-65
2022/05/14 03:22:07;;;;;;;16.80;15.30;;;;;;;;;;5002330;28;20054;-65
2022/05/14 03:24:36;;;;;;;16.00;14.48;;;;;;;;;;5004061;28;20029;-65
2022/05/14 03:27:02;;;;;;;17.27;15.20;;;;;;;;;;5002633;28;20056;-64
2022/05/14 03:29:29;;;;;;;16.83;15.18;;;;;;;;;;4999329;28;20129;-65
2022/05/14 03:31:57;;;;;;;17.02;15.43;;;;;;;;;;5016612;22;20038;-66
2022/05/14 03:34:24;;;;;;;16.50;15.10;;;;;;;;;;4990197;28;20038;-66
2022/05/14 03:36:50;;;;;;;15.93;14.43;;;;;;;;;;4992806;28;20033;-65
2022/05/14 03:39:16;;;;;;;17.00;15.13;;;;;;;;;;4994381;28;20511;-66
2022/05/14 03:41:42;;;;;;;16.80;15.30;;;;;;;;;;4987695;28;20126;-66
2022/05/14 03:44:09;;;;;;;16.33;14.63;;;;;;;;;;4966314;28;20195;-65
2022/05/14 03:46:35;;;;;;;20.92;15.27;;;;;;;;;;4968152;28;20079;-65
2022/05/14 03:49:02;;;;;;;17.10;15.52;;;;;;;;;;4981563;28;20039;-64
2022/05/14 03:51:29;;;;;;;17.17;15.32;;;;;;;;;;4971488;28;20494;-64
2022/05/14 03:53:56;;;;;;;16.58;15.18;;;;;;;;;;4969451;28;20445;-64
2022/05/14 03:56:22;;;;;;;16.40;14.88;;;;;;;;;;4970442;28;20643;-64
2022/05/14 03:58:48;;;;;;;16.83;15.30;;;;;;;;;;4969392;28;20034;-64
2022/05/14 04:01:14;;;;;;;16.77;14.80;;;;;;;;;;4969778;28;20027;-64
2022/05/14 04:03:40;;;;;;;19.95;15.80;;;;;;;;;;4968604;28;20042;-64
2022/05/14 04:06:07;;;;;;;16.13;14.73;;;;;;;;;;4972114;28;20034;-64
2022/05/14 04:08:33;;;;;;;17.42;15.48;;;;;;;;;;4971033;28;20039;-65
2022/05/14 04:11:00;;;;;;;16.45;14.95;;;;;;;;;;4970950;28;20569;-64
2022/05/14 04:13:26;;;;;;;15.80;14.43;;;;;;;;;;4966276;28;20397;-64
2022/05/14 04:15:52;;;;;;;17.02;15.52;;;;;;;;;;4986859;28;20034;-64
2022/05/14 04:18:24;;;;;;;22.00;15.63;;;;;;;;;;4967948;28;20042;-64
2022/05/14 04:20:55;;;;;;;17.23;15.52;;;;;;;;;;4984272;28;20081;-65
2022/05/14 04:23:22;;;;;;;16.77;15.15;;;;;;;;;;4972852;28;20124;-64
2022/05/14 04:25:50;;;;;;;17.70;15.02;;;;;;;;;;4971225;28;20042;-64
2022/05/14 04:28:18;;;;;;;17.15;15.25;;;;;;;;;;4986887;28;20051;-65
2022/05/14 04:30:44;;;;;;;15.55;14.13;;;;;;;;;;4966763;28;20554;-64
2022/05/14 04:33:10;;;;;;;15.23;13.98;;;;;;;;;;4957551;28;20074;-64
2022/05/14 04:35:37;;;;;;;15.23;14.02;;;;;;;;;;4969961;28;20026;-64
2022/05/14 04:38:03;;;;;;;16.33;13.77;;;;;;;;;;4982384;28;20042;-64
2022/05/14 04:40:29;;;;;;;14.85;13.52;;;;;;;;;;4985052;28;20409;-64
2022/05/14 04:42:55;;;;;;;14.85;13.57;;;;;;;;;;4965609;28;20034;-64
2022/05/14 04:45:21;;;;;;;15.15;14.00;;;;;;;;;;4966489;28;21590;-64
2022/05/14 04:47:47;;;;;;;14.82;13.55;;;;;;;;;;4960831;28;20134;-66
2022/05/14 04:50:13;;;;;;;16.52;14.18;;;;;;;;;;4970829;28;20035;-65
2022/05/14 04:52:40;;;;;;;16.73;14.32;;;;;;;;;;4963635;28;20053;-64
2022/05/14 04:55:06;;;;;;;15.70;14.20;;;;;;;;;;4969373;28;20478;-64
2022/05/14 04:57:32;;;;;;;15.50;14.05;;;;;;;;;;4970271;28;20043;-64
2022/05/14 04:59:58;;;;;;;14.85;13.68;;;;;;;;;;4968385;28;20398;-64
2022/05/14 05:05:11;;;;;;;15.30;13.77;;;;;;;;;;4981913;28;20081;-64
2022/05/14 05:07:36;;;;;;;14.98;13.70;;;;;;;;;;4970174;28;20066;-64
2022/05/14 05:10:02;;;;;;;14.75;13.60;;;;;;;;;;4969482;28;20080;-64
2022/05/14 05:12:28;;;;;;;14.82;13.80;;;;;;;;;;4971029;28;20486;-65
2022/05/14 05:14:54;;;;;;;14.82;13.38;;;;;;;;;;4970979;28;20038;-64
2022/05/14 05:17:20;;;;;;;13.95;12.82;;;;;;;;;;4968763;28;20501;-64
2022/05/14 05:19:45;;;;;;;14.07;13.07;;;;;;;;;;4968342;28;20046;-64
2022/05/14 05:22:11;;;;;;;13.05;12.07;;;;;;;;;;4971184;28;20045;-64
2022/05/14 05:24:36;;;;;;;14.77;13.27;;;;;;;;;;4970514;28;20035;-64
2022/05/14 05:27:02;;;;;;;13.80;12.80;;;;;;;;;;4969221;28;20428;-64
2022/05/14 05:29:28;;;;;;;14.07;12.88;;;;;;;;;;4970826;28;20517;-64
2022/05/14 05:31:53;;;;;;;13.77;12.50;;;;;;;;;;4970699;28;20043;-64
2022/05/14 05:34:19;;;;;;;14.65;13.20;;;;;;;;;;4970839;28;20044;-65
2022/05/14 05:36:44;;;;;;;14.55;13.40;;;;;;;;;;4969685;28;20041;-65
2022/05/14 05:39:10;;;;;;;15.63;13.35;;;;;;;;;;4970407;28;20489;-64
2022/05/14 05:41:37;;;;;;;13.82;12.68;;;;;;;;;;4970155;28;20034;-64
2022/05/14 05:44:02;;;;;;;13.30;12.20;;;;;;;;;;4968145;28;20037;-64
2022/05/14 05:46:31;;;;;;;14.13;12.57;;;;;;;;;;4969149;28;20050;-65
2022/05/14 05:48:56;;;;;;;13.75;12.50;;;;;;;;;;4970077;28;20069;-65
2022/05/14 05:51:22;;;;;;;13.63;12.43;;;;;;;;;;4968889;28;20043;-65
2022/05/14 05:56:47;;;;;;;14.30;13.10;;;;;;;;;;4968239;28;20042;-65
2022/05/14 05:59:14;;;;;;;14.15;12.55;;;;;;;;;;4969566;28;20042;-65
2022/05/14 06:01:40;;;;;;;13.27;12.38;;;;;;;;;;4966848;28;20034;-64
2022/05/14 06:04:06;;;;;;;13.10;12.10;;;;;;;;;;4968602;28;20030;-64
2022/05/14 06:06:32;;;;;;;14.10;12.85;;;;;;;;;;4969337;28;20117;-65
2022/05/14 06:08:59;;;;;;;13.15;12.25;;;;;;;;;;4969545;28;20409;-65
2022/05/14 06:11:25;;;;;;;13.93;12.57;;;;;;;;;;4967238;28;20498;-64
2022/05/14 06:13:51;;;;;;;14.32;13.30;;;;;;;;;;4968395;28;20034;-64
2022/05/14 06:16:17;;;;;;;14.15;13.00;;;;;;;;;;4969101;28;20034;-64
2022/05/14 06:18:43;;;;;;;13.80;12.80;;;;;;;;;;4969109;28;20046;-64
2022/05/14 06:21:09;;;;;;;14.18;13.05;;;;;;;;;;4967503;28;20089;-64
2022/05/14 06:23:35;;;;;;;14.20;13.15;;;;;;;;;;4966922;28;20187;-64
2022/05/14 06:26:01;;;;;;;13.88;12.60;;;;;;;;;;4968607;28;20513;-64
2022/05/14 06:28:26;;;;;;;14.27;13.07;;;;;;;;;;4969167;28;20175;-64
2022/05/14 06:30:52;;;;;;;13.30;12.10;;;;;;;;;;4966539;28;20050;-64
2022/05/14 06:33:18;;;;;;;12.95;11.95;;;;;;;;;;4968610;28;20042;-65
2022/05/14 06:35:45;;;;;;;12.65;11.55;;;;;;;;;;4969835;28;20035;-64
2022/05/14 06:38:12;;;;;;;13.25;12.15;;;;;;;;;;4968523;28;20030;-65
2022/05/14 06:40:38;;;;;;;12.45;11.65;;;;;;;;;;4966864;28;20413;-65
2022/05/14 06:43:04;;;;;;;13.52;12.15;;;;;;;;;;4968868;28;20035;-64
2022/05/14 06:45:30;;;;;;;13.40;12.38;;;;;;;;;;4969473;28;20042;-64
2022/05/14 06:47:57;;;;;;;13.70;12.50;;;;;;;;;;4967846;28;20577;-64
2022/05/14 06:50:25;;;;;;;12.80;11.60;;;;;;;;;;4969143;28;20069;-65
2022/05/14 06:52:55;;;;;;;13.27;11.93;;;;;;;;;;4969283;28;20027;-64
2022/05/14 06:55:24;;;;;;;13.23;12.30;;;;;;;;;;4965733;28;20306;-64
2022/05/14 06:57:50;;;;;;;13.63;12.43;;;;;;;;;;4968976;28;20045;-64
2022/05/14 07:00:17;;;;;;;13.68;12.63;;;;;;;;;;4969314;28;20050;-64
2022/05/14 07:02:43;;;;;;;12.70;11.80;;;;;;;;;;4967745;28;20452;-65
2022/05/14 07:07:54;;;;;;;13.70;12.80;;;;;;;;;;4969195;28;20126;-64
2022/05/14 07:10:19;;;;;;;13.32;12.30;;;;;;;;;;4969582;28;20137;-64
2022/05/14 07:12:45;;;;;;;13.70;12.57;;;;;;;;;;4967672;28;20621;-64
2022/05/14 07:15:12;;;;;;;13.27;12.05;;;;;;;;;;4966374;28;20038;-64
2022/05/14 07:17:38;;;;;;;14.88;12.70;;;;;;;;;;4968901;28;20382;-64
2022/05/14 07:20:05;;;;;;;14.00;12.98;;;;;;;;;;4968722;28;20123;-65
2022/05/14 07:22:31;;;;;;;13.43;12.07;;;;;;;;;;4968786;28;20039;-64
2022/05/14 07:24:58;;;;;;;12.68;11.55;;;;;;;;;;4966652;28;20121;-65
2022/05/14 07:27:24;;;;;;;11.85;10.82;;;;;;;;;;4968281;28;20130;-65
2022/05/14 07:29:49;;;;;;;11.80;10.77;;;;;;;;;;4968693;28;20074;-64
2022/05/14 07:32:18;;;;;;;10.95;10.15;;;;;;;;;;4967089;28;20098;-64
2022/05/14 07:34:44;;;;;;;11.63;10.68;;;;;;;;;;4968263;28;20046;-65
2022/05/14 07:37:27;;;;;;;11.95;10.90;;;;;;;;;;4969128;28;20035;-65
2022/05/14 07:39:57;;;;;;;10.75;9.93;;;;;;;;;;4967998;28;20039;-64
2022/05/14 07:42:33;;;;;;;12.07;10.20;;;;;;;;;;4968484;28;20062;-64
2022/05/14 07:45:01;;;;;;;12.57;11.68;;;;;;;;;;4967308;28;20042;-65
2022/05/14 07:47:29;;;;;;;12.75;11.70;;;;;;;;;;4959940;28;20049;-64
2022/05/14 07:49:56;;;;;;;12.93;11.60;;;;;;;;;;4966221;28;20030;-64
2022/05/14 07:52:22;;;;;;;12.80;11.50;;;;;;;;;;4967662;28;20042;-65
2022/05/14 07:54:48;;;;;;;12.18;11.38;;;;;;;;;;4964951;28;20043;-65
2022/05/14 07:57:16;;;;;;;13.65;12.20;;;;;;;;;;4966791;28;20035;-64
2022/05/14 07:59:42;;;;;;;12.00;10.73;;;;;;;;;;4968095;28;20035;-65
2022/05/14 08:02:21;;;;;;;11.23;10.45;;;;;;;;;;4967187;28;20486;-65
2022/05/14 08:04:46;;;;;;;11.52;10.63;;;;;;;;;;4966429;28;20034;-65
2022/05/14 08:07:12;;;;;;;11.93;10.95;;;;;;;;;;4966126;28;20062;-64
2022/05/14 08:09:37;;;;;;;12.15;11.32;;;;;;;;;;4968612;28;20089;-64
2022/05/14 08:12:03;;;;;;;11.95;10.90;;;;;;;;;;4968541;28;20043;-64
2022/05/14 08:14:30;;;;;;;11.75;10.63;;;;;;;;;;4969219;28;20125;-64
2022/05/14 08:16:55;;;;;;;10.93;9.68;;;;;;;;;;4970564;28;20062;-64
2022/05/14 08:19:21;;;;;;;11.88;10.35;;;;;;;;;;4972199;28;20070;-64
2022/05/14 08:24:30;;;;;;;11.10;10.00;;;;;;;;;;4971340;28;20089;-64
2022/05/14 08:27:04;;;;;;;11.02;10.02;;;;;;;;;;4969821;28;20031;-64
2022/05/14 08:29:30;;;;;;;12.48;11.38;;;;;;;;;;4969859;28;20065;-64
2022/05/14 08:31:56;;;;;;;11.13;10.23;;;;;;;;;;4972628;28;20074;-65
2022/05/14 08:34:22;;;;;;;10.73;9.93;;;;;;;;;;4969230;28;20720;-64
2022/05/14 08:36:47;;;;;;;10.63;9.63;;;;;;;;;;4971214;28;20062;-65
2022/05/14 08:39:15;;;;;;;10.98;10.07;;;;;;;;;;4971459;28;20093;-64
2022/05/14 08:41:43;;;;;;;11.07;10.18;;;;;;;;;;4971189;28;20038;-64
2022/05/14 08:44:13;;;;;;;10.55;9.65;;;;;;;;;;4969639;28;20092;-65
2022/05/14 08:46:40;;;;;;;10.77;9.98;;;;;;;;;;4971084;28;20030;-65
2022/05/14 08:49:36;;;;;;;10.80;9.90;;;;;;;;;;4971012;28;20038;-65
2022/05/14 08:52:06;;;;;;;10.68;9.98;;;;;;;;;;4983362;28;20139;-65
2022/05/14 08:54:32;;;;;;;11.05;10.15;;;;;;;;;;4970454;28;20061;-67
2022/05/14 08:57:14;;;;;;;10.63;9.93;;;;;;;;;;4971357;28;20053;-64
2022/05/14 08:59:57;;;;;;;10.38;9.60;;;;;;;;;;4970084;28;20037;-64
2022/05/14 09:02:34;;;;;;;11.10;10.27;;;;;;;;;;4969749;28;20498;-66
2022/05/14 09:05:02;;;;;;;10.05;9.35;;;;;;;;;;4967298;28;20034;-65
2022/05/14 09:07:28;;;;;;;11.00;10.02;;;;;;;;;;4971155;28;20042;-65
2022/05/14 09:09:57;;;;;;;11.18;10.48;;;;;;;;;;4969416;28;20027;-65
2022/05/14 09:12:30;;;;;;;;;;;;;;;;;;4971097;28;20047;-65
2022/05/14 09:15:00;;;;;;;10.65;9.85;;;;;;;;;;4971153;28;19939;-65
2022/05/14 09:17:29;;;;;;;10.80;10.00;;;;;;;;;;4968670;28;20126;-64
2022/05/14 09:19:55;;;;;;;9.77;9.07;;;;;;;;;;4970883;28;20483;-64
2022/05/14 09:22:22;;;;;;;10.10;9.50;;;;;;;;;;4969803;28;20030;-65
2022/05/14 09:24:54;;;;;;;10.65;9.88;;;;;;;;;;4968374;28;20045;-65
2022/05/14 09:27:32;;;;;;;10.18;9.18;;;;;;;;;;4969748;28;20062;-65
2022/05/14 09:30:03;;;;;;;11.10;9.37;;;;;;;;;;4970498;28;20038;-65
2022/05/14 09:32:38;;;;;;;10.20;9.40;;;;;;;;;;4970904;28;20308;-66
2022/05/14 09:35:06;;;;;;;10.27;9.32;;;;;;;;;;4968552;28;20514;-65
2022/05/14 09:37:32;;;;;;;9.90;9.18;;;;;;;;;;4969221;28;20046;-66
2022/05/14 09:40:01;;;;;;;10.10;9.27;;;;;;;;;;4969853;28;20250;-65
2022/05/14 09:42:54;;;;;;;9.60;8.90;;;;;;;;;;4967906;28;20299;-66
2022/05/14 09:45:33;;;;;;;11.38;8.98;;;;;;;;;;4967835;28;20546;-65
2022/05/14 09:48:16;;;;;;;10.25;9.32;;;;;;;;;;4969539;28;20121;-65
2022/05/14 09:50:51;;;;;;;10.13;9.35;;;;;;;;;;4967752;28;20043;-66
2022/05/14 09:53:35;;;;;;;10.48;9.45;;;;;;;;;;4969249;28;20039;-66
2022/05/14 09:56:08;;;;;;;10.98;10.07;;;;;;;;;;4969007;28;20030;-65
2022/05/14 09:59:11;;;;;;;11.27;10.18;;;;;;;;;;4969353;28;20034;-67
2022/05/14 10:01:45;;;;;;;10.65;9.57;;;;;;;;;;4968176;28;20113;-65
2022/05/14 10:04:42;;;;;;;10.50;9.60;;;;;;;;;;4967096;28;20089;-66
2022/05/14 10:07:16;;;;;;;11.18;9.55;;;;;;;;;;4968200;28;20501;-67
2022/05/14 10:10:06;;;;;;;11.25;10.35;;;;;;;;;;4967896;28;20034;-66
2022/05/14 10:12:43;;;;;;;11.15;10.15;;;;;;;;;;4967842;28;20047;-66
2022/05/14 10:15:46;;;;;;;10.18;9.30;;;;;;;;;;4969557;28;20054;-65
2022/05/14 10:18:15;;;;;;;9.73;8.90;;;;;;;;;;4873283;29;20093;-66
2022/05/14 10:21:05;;;;;;;10.32;9.48;;;;;;;;;;4873391;29;20457;-66
2022/05/14 10:27:10;;;;;;;9.15;8.45;;;;;;;;;;4872278;29;20053;-67
2022/05/14 10:30:17;;;;;;;9.10;8.45;;;;;;;;;;4870869;29;20501;-66
2022/05/14 10:32:50;;;;;;;9.90;9.18;;;;;;;;;;4872083;29;20053;-66
2022/05/14 10:35:24;;;;;;;9.57;8.85;;;;;;;;;;4856966;29;20117;-66
2022/05/14 10:38:12;;;;;;;10.15;9.40;;;;;;;;;;4869095;29;20123;-66
2022/05/14 10:40:42;;;;;;;10.18;9.25;;;;;;;;;;4861813;29;20616;-66
2022/05/14 10:43:23;;;;;;;9.82;9.02;;;;;;;;;;4868708;29;20072;-66
2022/05/14 10:45:52;;;;;;;9.77;8.82;;;;;;;;;;4872161;29;20490;-66
2022/05/14 10:48:58;;;;;;;10.48;9.50;;;;;;;;;;4870566;29;20061;-66
2022/05/14 10:51:28;;;;;;;10.75;9.70;;;;;;;;;;4860660;29;20514;-66
2022/05/14 10:53:54;;;;;;;10.57;9.68;;;;;;;;;;4921961;28;20053;-67
2022/05/14 10:56:29;;;;;;;10.48;9.57;;;;;;;;;;4966703;28;20043;-65
2022/05/14 10:58:59;;;;;;;10.38;9.30;;;;;;;;;;4966244;28;20053;-67
2022/05/14 11:01:37;;;;;;;10.82;9.75;;;;;;;;;;4962990;28;20039;-66
2022/05/14 11:04:18;;;;;;;16.08;10.30;;;;;;;;;;4967087;28;20122;-67
2022/05/14 11:07:00;;;;;;;11.10;9.98;;;;;;;;;;4962669;28;20393;-66
2022/05/14 11:09:39;;;;;;;9.38;8.68;;;;;;;;;;4963548;28;20042;-66
2022/05/14 11:12:25;;;;;;;9.43;8.65;;;;;;;;;;4966820;28;20022;-66
2022/05/14 11:14:54;;;;;;;9.82;8.85;;;;;;;;;;4966831;28;20062;-67
2022/05/14 11:17:25;;;;;;;;;;;;;;;;;;4965771;28;20035;-66
2022/05/14 11:20:20;;;;;;;9.30;8.50;;;;;;;;;;4964835;28;20305;-66
2022/05/14 11:22:49;;;;;;;12.07;9.07;;;;;;;;;;4957406;28;20651;-66
2022/05/14 11:25:19;;;;;;;10.35;9.30;;;;;;;;;;4964811;28;20493;-66
2022/05/14 11:28:12;;;;;;;10.32;9.35;;;;;;;;;;4964620;28;20043;-66
2022/05/14 11:30:42;;;;;;;9.63;8.93;;;;;;;;;;4960750;28;20078;-67
2022/05/14 11:33:17;;;;;;;10.15;9.35;;;;;;;;;;4964499;28;20035;-66
2022/05/14 11:35:46;;;;;;;11.13;10.07;;;;;;;;;;4961685;28;20470;-66
2022/05/14 11:38:16;;;;;;;9.93;9.32;;;;;;;;;;4963680;28;20121;-66
2022/05/14 11:40:42;;;;;;;10.80;9.85;;;;;;;;;;4965561;28;20030;-66
2022/05/14 11:43:21;;;;;;;10.43;9.63;;;;;;;;;;4966111;28;20031;-66
2022/05/14 11:46:30;;;;;;;10.93;10.13;;;;;;;;;;4965880;28;20057;-66
2022/05/14 11:49:14;;;;;;;11.02;10.02;;;;;;;;;;4964800;28;20042;-66
2022/05/14 11:51:50;;;;;;;11.20;10.27;;;;;;;;;;4969927;28;20069;-66
2022/05/14 11:54:31;;;;;;;11.60;10.75;;;;;;;;;;4968707;28;20046;-66
2022/05/14 11:56:59;;;;;;;10.70;9.85;;;;;;;;;;4972263;28;20063;-67
2022/05/14 11:59:34;;;;;;;11.55;10.73;;;;;;;;;;4967450;28;20039;-67
2022/05/14 12:02:05;;;;;;;12.02;10.88;;;;;;;;;;4969248;28;20043;-67
2022/05/14 12:04:39;;;;;;;11.18;10.35;;;;;;;;;;4968081;28;20046;-67
2022/05/14 12:07:42;;;;;;;10.77;9.77;;;;;;;;;;4968020;28;20069;-66
2022/05/14 12:10:20;;;;;;;11.60;10.55;;;;;;;;;;4969570;28;20034;-66
2022/05/14 12:12:57;;;;;;;11.50;10.38;;;;;;;;;;4970459;28;20133;-66
2022/05/14 12:15:24;;;;;;;11.40;10.30;;;;;;;;;;4969314;28;20042;-67
2022/05/14 12:17:55;;;;;;;11.07;10.05;;;;;;;;;;4967851;28;20066;-67
2022/05/14 12:20:26;;;;;;;11.85;10.75;;;;;;;;;;4969151;28;20405;-67
2022/05/14 12:22:55;;;;;;;10.98;10.07;;;;;;;;;;4970189;28;20122;-67
2022/05/14 12:25:21;;;;;;;10.60;9.90;;;;;;;;;;4969764;28;20177;-66
2022/05/14 12:27:49;;;;;;;11.45;10.55;;;;;;;;;;4968905;28;20034;-66
2022/05/14 12:33:18;;;;;;;10.70;10.00;;;;;;;;;;4966474;28;20041;-66
2022/05/14 12:35:53;;;;;;;10.25;9.45;;;;;;;;;;4968186;28;20110;-66
2022/05/14 12:38:27;;;;;;;11.40;10.40;;;;;;;;;;4969212;28;20046;-66
2022/05/14 12:40:53;;;;;;;11.35;10.52;;;;;;;;;;4969620;28;20039;-66
2022/05/14 12:43:19;;;;;;;11.82;10.80;;;;;;;;;;4967304;28;20118;-66
2022/05/14 12:45:50;;;;;;;11.40;10.27;;;;;;;;;;4968912;28;20117;-66
2022/05/14 12:48:16;;;;;;;10.63;9.90;;;;;;;;;;4968817;28;20034;-66
2022/05/14 12:50:55;;;;;;;11.48;10.38;;;;;;;;;;4968846;28;20634;-66
2022/05/14 12:53:20;;;;;;;;;;;;;;;;;;4966726;28;20047;-66
2022/05/14 12:55:49;;;;;;;11.63;10.45;;;;;;;;;;4968411;28;20329;-66
2022/05/14 12:58:17;;;;;;;10.88;10.10;;;;;;;;;;4960707;28;20037;-66
2022/05/14 13:00:47;;;;;;;11.20;10.32;;;;;;;;;;4968444;28;20398;-67
2022/05/14 13:03:25;;;;;;;11.55;10.65;;;;;;;;;;4969163;28;20529;-66
2022/05/14 13:06:19;;;;;;;10.88;10.07;;;;;;;;;;4966184;28;20509;-67
2022/05/14 13:08:51;;;;;;;11.20;10.40;;;;;;;;;;4965228;28;20614;-66
2022/05/14 13:11:21;;;;;;;11.23;10.40;;;;;;;;;;4970886;28;20125;-66
2022/05/14 13:13:50;;;;;;;11.07;9.93;;;;;;;;;;4971097;28;20041;-66
2022/05/14 13:16:22;;;;;;;11.07;10.18;;;;;;;;;;4969814;28;20031;-66
2022/05/14 13:18:53;;;;;;;10.65;9.88;;;;;;;;;;4969400;28;20553;-66
2022/05/14 13:21:29;;;;;;;11.00;10.13;;;;;;;;;;4970818;28;20073;-66
2022/05/14 13:23:57;;;;;;;10.50;9.60;;;;;;;;;;4968134;28;20450;-66
2022/05/14 13:26:42;;;;;;;10.60;9.88;;;;;;;;;;4970518;28;20078;-67
2022/05/14 13:29:35;;;;;;;10.20;9.40;;;;;;;;;;4967436;28;20034;-66
2022/05/14 13:32:22;;;;;;;10.90;10.00;;;;;;;;;;4962023;28;20038;-67
2022/05/14 13:37:41;;;;;;;11.15;9.32;;;;;;;;;;4970516;28;20049;-67
2022/05/14 13:40:10;;;;;;;11.07;10.20;;;;;;;;;;4970665;28;20490;-67
2022/05/14 13:42:45;;;;;;;11.15;10.38;;;;;;;;;;4968055;28;20030;-67
2022/05/14 13:45:30;;;;;;;10.85;9.93;;;;;;;;;;4968116;28;20044;-67
2022/05/14 13:48:05;;;;;;;11.23;10.27;;;;;;;;;;4970167;28;20042;-67
2022/05/14 13:50:37;;;;;;;11.27;10.38;;;;;;;;;;4965461;28;20057;-67
2022/05/14 13:53:04;;;;;;;11.10;10.07;;;;;;;;;;4967166;28;20557;-67
2022/05/14 13:55:39;;;;;;;11.18;10.32;;;;;;;;;;4965442;28;20039;-66
2022/05/14 13:58:20;;;;;;;11.18;10.38;;;;;;;;;;4981968;28;20414;-67
2022/05/14 14:00:56;;;;;;;10.95;10.15;;;;;;;;;;4968888;28;20047;-67
2022/05/14 14:03:25;;;;;;;10.82;10.13;;;;;;;;;;4961642;28;20035;-67
2022/05/14 14:05:51;;;;;;;;;;;;;;;;;;4968178;28;20049;-68
2022/05/14 14:08:25;;;;;;;10.55;9.73;;;;;;;;;;4967892;28;19981;-67
2022/05/14 14:10:53;;;;;;;11.00;10.10;;;;;;;;;;4964549;28;20134;-67
2022/05/14 14:13:19;;;;;;;10.50;9.70;;;;;;;;;;4965987;28;20031;-67
2022/05/14 14:15:45;;;;;;;11.13;10.02;;;;;;;;;;4968013;28;20053;-66
2022/05/14 14:18:10;;;;;;;10.73;10.02;;;;;;;;;;4966890;28;20573;-67
2022/05/14 14:20:41;;;;;;;10.88;10.00;;;;;;;;;;4967405;28;20043;-67
2022/05/14 14:23:10;;;;;;;10.85;9.85;;;;;;;;;;4964772;28;20173;-67
2022/05/14 14:25:40;;;;;;;11.57;9.90;;;;;;;;;;4967600;28;20088;-67
2022/05/14 14:28:08;;;;;;;10.30;9.27;;;;;;;;;;4963244;28;20031;-67
2022/05/14 14:30:33;;;;;;;11.13;10.30;;;;;;;;;;4967487;28;20058;-67
2022/05/14 14:32:59;;;;;;;10.65;9.90;;;;;;;;;;4966956;28;20047;-67
2022/05/14 14:35:25;;;;;;;9.95;9.30;;;;;;;;;;4965259;28;20045;-66
2022/05/14 14:37:50;;;;;;;10.85;10.07;;;;;;;;;;4966833;28;20498;-66
2022/05/14 14:40:16;;;;;;;10.88;10.18;;;;;;;;;;4967203;28;20607;-66
2022/05/14 14:42:43;;;;;;;10.65;9.95;;;;;;;;;;4965431;28;20484;-67
2022/05/14 14:45:11;;;;;;;10.50;9.80;;;;;;;;;;4966346;28;20442;-66
2022/05/14 14:47:42;;;;;;;11.13;10.30;;;;;;;;;;4967091;28;20035;-66
2022/05/14 14:50:08;;;;;;;10.30;9.60;;;;;;;;;;4967469;28;20042;-66
2022/05/14 14:52:34;;;;;;;11.40;10.43;;;;;;;;;;4965737;28;20422;-67
2022/05/14 14:55:02;;;;;;;11.07;10.18;;;;;;;;;;4966337;28;20030;-67
2022/05/14 14:57:28;;;;;;;11.23;10.52;;;;;;;;;;4964611;28;20440;-66
2022/05/14 14:59:53;;;;;;;11.02;10.23;;;;;;;;;;4961041;28;20093;-66
2022/05/14 15:02:24;;;;;;;11.32;10.30;;;;;;;;;;4964816;28;20577;-66
2022/05/14 15:04:56;;;;;;;11.10;10.30;;;;;;;;;;4965396;28;20494;-66